Time;durP1;ratioP1;P1;durP2;ratioP2;P2;SDS_P1;SDS_P2;PMS_P1;PMS_P2;Temp;Humidity;BMP_temperature;BMP_pressure;BME280_temperature;BME280_humidity;BME280_pressure;Samples;Min_cycle;Max_cycle;Signal;HPM_P1;HPM_P2
2023/03/04 00:01:50;;;;;;;30.90;16.80;;;;;;;0.79;91.38;100731.23;105581;1254;82634;-59
2023/03/04 00:04:18;;;;;;;27.70;16.30;;;;;;;0.78;91.46;100723.65;105537;1254;73419;-59
2023/03/04 00:06:47;;;;;;;31.60;16.20;;;;;;;0.79;91.39;100723.83;105547;1257;69105;-60
2023/03/04 00:09:15;;;;;;;28.10;15.10;;;;;;;0.81;91.28;100729.86;105592;1254;69112;-61
2023/03/04 00:11:43;;;;;;;30.60;15.40;;;;;;;0.80;91.30;100732.27;105588;1254;74542;-61
2023/03/04 00:14:12;;;;;;;28.00;14.90;;;;;;;0.81;91.30;100725.21;105529;1254;83681;-61
2023/03/04 00:16:40;;;;;;;32.80;15.60;;;;;;;0.83;91.23;100723.86;105568;1252;73454;-61
2023/03/04 00:19:09;;;;;;;30.10;14.80;;;;;;;0.85;91.10;100731.27;105795;1252;69092;-59
2023/03/04 00:21:37;;;;;;;31.40;16.30;;;;;;;0.86;91.20;100721.47;105580;1254;69129;-59
2023/03/04 00:24:06;;;;;;;30.40;15.00;;;;;;;0.88;91.15;100706.52;105571;1254;74550;-59
2023/03/04 00:26:34;;;;;;;26.70;14.70;;;;;;;0.92;91.15;100708.95;105549;1254;83382;-59
2023/03/04 00:29:02;;;;;;;27.60;14.40;;;;;;;0.94;91.09;100710.51;105536;1256;74019;-59
2023/03/04 00:31:30;;;;;;;27.60;14.00;;;;;;;0.93;91.01;100707.93;105532;1253;69252;-59
2023/03/04 00:33:59;;;;;;;25.80;13.50;;;;;;;0.93;90.90;100708.10;105385;1252;69146;-59
2023/03/04 00:36:27;;;;;;;25.40;14.20;;;;;;;0.93;91.01;100708.80;105532;1256;74686;-60
2023/03/04 00:38:55;;;;;;;28.80;14.60;;;;;;;0.95;90.94;100715.68;105591;1254;82201;-60
2023/03/04 00:41:24;;;;;;;26.30;13.10;;;;;;;0.96;90.82;100721.89;105445;1257;73048;-60
2023/03/04 00:43:52;;;;;;;26.10;14.30;;;;;;;0.95;90.80;100717.59;105438;1256;69084;-60
2023/03/04 00:46:20;;;;;;;27.50;14.30;;;;;;;0.95;90.76;100720.52;105549;1255;69119;-60
2023/03/04 00:48:48;;;;;;;28.70;14.60;;;;;;;0.95;90.71;100730.49;105535;1254;73920;-60
2023/03/04 00:51:17;;;;;;;23.90;13.40;;;;;;;0.95;90.66;100715.69;105527;1256;83166;-60
2023/03/04 00:53:46;;;;;;;23.20;12.40;;;;;;;0.96;90.82;100714.48;105524;1254;73446;-60
2023/03/04 00:56:14;;;;;;;24.40;13.70;;;;;;;0.97;90.49;100714.67;105739;1253;69190;-60
2023/03/04 00:58:43;;;;;;;23.90;13.30;;;;;;;0.96;90.54;100703.66;105525;1254;69087;-60
2023/03/04 01:01:11;;;;;;;23.20;13.00;;;;;;;0.95;90.51;100698.14;105556;1256;74352;-60
2023/03/04 01:03:41;;;;;;;27.10;14.20;;;;;;;0.95;90.51;100699.52;105576;1255;83649;-60
2023/03/04 01:06:10;;;;;;;;;;;;;;;0.93;90.41;100692.61;105563;1254;73875;-60
2023/03/04 01:08:38;;;;;;;21.60;11.30;;;;;;;0.92;90.31;100692.96;105578;1252;69116;-60
2023/03/04 01:11:08;;;;;;;21.60;12.30;;;;;;;0.91;90.37;100688.29;105569;1254;69103;-60
2023/03/04 01:13:36;;;;;;;19.10;12.00;;;;;;;0.93;90.34;100680.39;105500;1253;73939;-60
2023/03/04 01:16:05;;;;;;;21.30;12.10;;;;;;;0.93;90.24;100678.67;105544;1254;83782;-60
2023/03/04 01:18:33;;;;;;;21.80;11.90;;;;;;;0.93;90.20;100672.14;105506;1255;73368;-60
2023/03/04 01:21:02;;;;;;;21.80;12.40;;;;;;;0.94;90.04;100667.67;105571;1254;69164;-60
2023/03/04 01:23:31;;;;;;;25.10;12.10;;;;;;;0.95;90.12;100664.41;105516;1254;69714;-60
2023/03/04 01:25:59;;;;;;;20.10;11.40;;;;;;;0.96;89.94;100667.34;105592;1256;74976;-60
2023/03/04 01:28:27;;;;;;;21.00;11.90;;;;;;;0.96;90.05;100659.94;105606;1252;82887;-60
2023/03/04 01:30:55;;;;;;;19.50;11.10;;;;;;;0.98;90.02;100654.11;105519;1254;72658;-60
2023/03/04 01:33:24;;;;;;;19.90;12.20;;;;;;;0.98;89.91;100651.20;105511;1253;69165;-60
2023/03/04 01:35:52;;;;;;;20.10;11.20;;;;;;;0.99;89.91;100651.70;105523;1256;69211;-60
2023/03/04 01:38:20;;;;;;;18.70;10.80;;;;;;;1.01;89.89;100649.65;105502;1254;73997;-60
2023/03/04 01:40:48;;;;;;;20.40;11.10;;;;;;;1.03;89.81;100651.05;105489;1256;83447;-60
2023/03/04 01:43:25;;;;;;;20.50;11.90;;;;;;;1.03;89.80;100649.84;105537;1256;73846;-60
2023/03/04 01:45:54;;;;;;;22.20;12.20;;;;;;;1.02;89.72;100649.48;105564;1254;69109;-60
2023/03/04 01:48:28;;;;;;;24.30;12.60;;;;;;;1.03;89.77;100650.00;105505;1252;69056;-60
2023/03/04 01:51:01;;;;;;;20.90;11.80;;;;;;;1.04;89.79;100651.73;105525;1256;73957;-60
2023/03/04 01:53:31;;;;;;;21.80;11.20;;;;;;;1.03;89.53;100653.80;105334;1257;83443;-60
2023/03/04 01:56:12;;;;;;;21.70;12.10;;;;;;;1.01;89.48;100643.64;105381;1253;72829;-60
2023/03/04 01:58:41;;;;;;;18.40;10.30;;;;;;;1.01;89.24;100642.25;105531;1253;69090;-60
2023/03/04 02:01:16;;;;;;;19.30;11.20;;;;;;;1.01;89.37;100640.02;105457;1252;69173;-60
2023/03/04 02:03:45;;;;;;;22.70;11.50;;;;;;;1.02;89.31;100639.16;105531;1253;75010;-60
2023/03/04 02:06:13;;;;;;;21.00;11.50;;;;;;;1.02;89.16;100639.86;105522;1254;81871;-60
2023/03/04 02:08:41;;;;;;;18.60;10.30;;;;;;;1.03;89.07;100639.16;105491;1254;73793;-59
2023/03/04 02:11:09;;;;;;;22.40;12.30;;;;;;;1.04;89.02;100638.14;105422;1254;69167;-60
2023/03/04 02:13:37;;;;;;;22.20;12.10;;;;;;;1.05;88.97;100631.61;105847;1255;69122;-61
2023/03/04 02:16:06;;;;;;;21.20;12.30;;;;;;;1.04;88.83;100628.33;105565;1253;74814;-60
2023/03/04 02:18:34;;;;;;;23.50;13.10;;;;;;;1.04;88.82;100624.73;105455;1254;83236;-61
2023/03/04 02:21:24;;;;;;;19.90;12.30;;;;;;;1.04;88.86;100621.11;105814;1254;73391;-61
2023/03/04 02:23:58;;;;;;;20.60;12.00;;;;;;;1.04;88.79;100618.34;105363;1257;69195;-61
2023/03/04 02:26:28;;;;;;;22.00;12.60;;;;;;;1.03;88.60;100616.11;105542;1256;69228;-60
2023/03/04 02:28:58;;;;;;;22.30;13.40;;;;;;;1.03;88.55;100609.05;105589;1253;73852;-60
2023/03/04 02:31:36;;;;;;;24.10;13.00;;;;;;;1.02;88.43;100604.05;105516;1256;83465;-60
2023/03/04 02:34:07;;;;;;;21.50;12.80;;;;;;;1.02;88.42;100601.81;105400;1258;72783;-60
2023/03/04 02:36:35;;;;;;;23.40;11.80;;;;;;;1.03;88.33;100599.08;105698;1254;69225;-60
2023/03/04 02:39:19;;;;;;;23.90;12.30;;;;;;;1.03;88.21;100593.75;105476;1257;69182;-60
2023/03/04 02:41:51;;;;;;;25.10;12.10;;;;;;;1.03;88.34;100594.60;105581;1256;75240;-60
2023/03/04 02:44:19;;;;;;;;;;;;;;;1.05;88.24;100589.11;105713;1255;83470;-60
2023/03/04 02:46:49;;;;;;;19.70;11.50;;;;;;;1.07;88.23;100590.14;105311;1253;73728;-60
2023/03/04 02:49:18;;;;;;;21.90;12.70;;;;;;;1.07;88.13;100592.38;105300;1257;69693;-60
2023/03/04 02:51:51;;;;;;;25.20;14.40;;;;;;;1.06;88.00;100587.05;105583;1252;69064;-60
2023/03/04 02:54:21;;;;;;;24.70;14.30;;;;;;;1.06;88.00;100581.72;105335;1255;74729;-59
2023/03/04 02:56:52;;;;;;;28.30;15.40;;;;;;;1.05;87.93;100581.86;105463;1254;82425;-59
2023/03/04 02:59:21;;;;;;;24.10;14.10;;;;;;;1.05;88.15;100578.61;105416;1254;73802;-59
2023/03/04 03:01:50;;;;;;;30.60;15.10;;;;;;;1.06;87.97;100574.99;105582;1256;69179;-59
2023/03/04 03:04:21;;;;;;;25.40;14.00;;;;;;;1.06;87.68;100568.81;105768;1252;69160;-59
2023/03/04 03:06:51;;;;;;;25.50;14.90;;;;;;;1.06;87.75;100563.48;105428;1254;75087;-59
2023/03/04 03:09:21;;;;;;;28.90;16.30;;;;;;;1.05;87.58;100562.61;105820;1253;83577;-59
2023/03/04 03:11:49;;;;;;;28.50;16.00;;;;;;;1.06;87.65;100554.52;105441;1254;73983;-59
2023/03/04 03:14:17;;;;;;;27.80;15.20;;;;;;;1.08;87.69;100552.46;105517;1256;69143;-59
2023/03/04 03:16:45;;;;;;;31.10;16.20;;;;;;;1.09;87.46;100547.13;105402;1257;69195;-59
2023/03/04 03:19:14;;;;;;;29.10;15.80;;;;;;;1.11;87.57;100550.75;105581;1254;74642;-59
2023/03/04 03:21:43;;;;;;;29.70;16.30;;;;;;;1.13;87.35;100545.59;105924;1253;82598;-59
2023/03/04 03:24:11;;;;;;;29.00;16.00;;;;;;;1.13;87.47;100541.28;105567;1254;73803;-59
2023/03/04 03:26:40;;;;;;;26.90;16.00;;;;;;;1.13;87.28;100530.09;105513;1253;69225;-59
2023/03/04 03:29:08;;;;;;;29.00;16.70;;;;;;;1.14;87.52;100535.45;105599;1256;69573;-59
2023/03/04 03:31:36;;;;;;;32.20;16.30;;;;;;;1.13;87.19;100531.48;105394;1257;73994;-59
2023/03/04 03:34:04;;;;;;;27.10;15.30;;;;;;;1.13;87.09;100527.87;105414;1257;83302;-59
2023/03/04 03:36:33;;;;;;;32.00;17.00;;;;;;;1.14;86.92;100523.92;105398;1256;73751;-59
2023/03/04 03:39:01;;;;;;;27.00;15.20;;;;;;;1.14;87.05;100525.45;105477;1258;69105;-59
2023/03/04 03:41:29;;;;;;;27.50;15.40;;;;;;;1.16;87.07;100525.80;105458;1256;69119;-59
2023/03/04 03:43:57;;;;;;;28.00;16.20;;;;;;;1.18;86.97;100525.13;105395;1256;73758;-59
2023/03/04 03:46:26;;;;;;;27.30;15.90;;;;;;;1.20;87.08;100527.73;105421;1256;83404;-59
2023/03/04 03:48:54;;;;;;;24.50;15.10;;;;;;;1.22;87.04;100520.67;105408;1253;73765;-59
2023/03/04 03:51:22;;;;;;;27.50;15.80;;;;;;;1.24;87.09;100520.84;105399;1256;69228;-59
2023/03/04 03:53:50;;;;;;;26.70;15.90;;;;;;;1.25;86.92;100517.41;105423;1253;69166;-59
2023/03/04 03:56:19;;;;;;;27.00;15.80;;;;;;;1.25;86.82;100512.77;105656;1253;74787;-59
2023/03/04 03:58:47;;;;;;;25.40;15.60;;;;;;;1.26;86.82;100507.42;105468;1253;83851;-60
2023/03/04 04:01:15;;;;;;;27.90;15.50;;;;;;;1.27;86.86;100502.78;105494;1253;73354;-59
2023/03/04 04:03:43;;;;;;;25.70;15.10;;;;;;;1.29;86.65;100500.54;105436;1254;69157;-59
2023/03/04 04:06:11;;;;;;;26.90;14.90;;;;;;;1.29;86.48;100497.63;105432;1253;69167;-60
2023/03/04 04:08:40;;;;;;;25.00;14.40;;;;;;;1.30;86.47;100497.63;105505;1253;74735;-60
2023/03/04 04:11:10;;;;;;;24.80;14.10;;;;;;;1.31;86.47;100490.23;105516;1254;82853;-60
2023/03/04 04:13:38;;;;;;;23.00;13.30;;;;;;;1.33;86.43;100484.72;105437;1253;73772;-60
2023/03/04 04:16:08;;;;;;;21.90;12.90;;;;;;;1.35;86.30;100490.74;105504;1254;69176;-60
2023/03/04 04:18:36;;;;;;;26.50;13.90;;;;;;;1.37;86.22;100486.45;105495;1256;69186;-60
2023/03/04 04:21:05;;;;;;;26.50;13.40;;;;;;;1.39;86.23;100485.42;105496;1256;74361;-61
2023/03/04 04:23:33;;;;;;;25.70;13.70;;;;;;;1.39;86.33;100485.42;105548;1254;83392;-60
2023/03/04 04:26:02;;;;;;;26.40;14.30;;;;;;;1.40;86.31;100479.05;105390;1256;72789;-60
2023/03/04 04:28:32;;;;;;;23.80;13.50;;;;;;;1.40;86.09;100480.77;105665;1254;69380;-60
2023/03/04 04:31:00;;;;;;;23.80;13.20;;;;;;;1.40;86.03;100476.46;105493;1253;69170;-60
2023/03/04 04:33:29;;;;;;;28.00;12.50;;;;;;;1.41;85.91;100480.42;105518;1256;73963;-60
2023/03/04 04:35:57;;;;;;;22.40;12.80;;;;;;;1.42;86.04;100479.75;105546;1256;83130;-60
2023/03/04 04:38:26;;;;;;;22.30;13.00;;;;;;;1.44;85.91;100479.55;105485;1256;72993;-60
2023/03/04 04:40:57;;;;;;;22.40;13.20;;;;;;;1.45;85.78;100480.43;105547;1254;69179;-60
2023/03/04 04:43:25;;;;;;;24.40;13.20;;;;;;;1.46;85.77;100480.09;105540;1254;69162;-60
2023/03/04 04:45:53;;;;;;;23.80;13.60;;;;;;;1.47;85.81;100488.18;105500;1254;74141;-60
2023/03/04 04:48:21;;;;;;;23.20;13.40;;;;;;;1.48;85.93;100498.36;105499;1254;82378;-60
2023/03/04 04:50:55;;;;;;;22.10;13.00;;;;;;;1.48;85.68;100494.56;105468;1254;73734;-60
2023/03/04 04:53:23;;;;;;;21.20;12.70;;;;;;;1.49;85.70;100487.49;105564;1253;69064;-60
2023/03/04 04:55:51;;;;;;;23.80;13.00;;;;;;;1.49;85.60;100491.28;105555;1256;69115;-60
2023/03/04 04:58:20;;;;;;;18.90;12.10;;;;;;;1.49;85.46;100486.28;105497;1256;75046;-60
2023/03/04 05:00:48;;;;;;;22.00;13.20;;;;;;;1.49;85.36;100497.14;105619;1255;83327;-60
2023/03/04 05:03:16;;;;;;;22.80;12.30;;;;;;;1.49;85.23;100491.28;105494;1256;74132;-60
2023/03/04 05:05:45;;;;;;;22.50;13.40;;;;;;;1.50;85.16;100503.34;105558;1252;69083;-60
2023/03/04 05:08:13;;;;;;;22.70;12.80;;;;;;;1.50;85.17;100489.06;105496;1253;69166;-60
2023/03/04 05:10:42;;;;;;;25.80;13.50;;;;;;;1.50;85.12;100488.70;105519;1254;74886;-60
2023/03/04 05:13:10;;;;;;;27.00;14.40;;;;;;;1.51;85.18;100491.12;105740;1255;83034;-60
2023/03/04 05:15:38;;;;;;;27.50;13.50;;;;;;;1.50;85.17;100484.92;105759;1256;73719;-60
2023/03/04 05:18:07;;;;;;;21.60;12.60;;;;;;;1.51;85.19;100483.54;105747;1252;69249;-60
2023/03/04 05:20:35;;;;;;;22.20;13.50;;;;;;;1.52;85.10;100481.13;105508;1254;69068;-60
2023/03/04 05:23:03;;;;;;;29.60;15.90;;;;;;;1.52;85.07;100480.80;105619;1254;74668;-59
2023/03/04 05:25:31;;;;;;;26.50;14.70;;;;;;;1.54;85.00;100486.48;105496;1253;83511;-60
2023/03/04 05:28:00;;;;;;;29.00;14.60;;;;;;;1.55;85.23;100485.79;105527;1256;73468;-60
2023/03/04 05:30:29;;;;;;;28.20;14.90;;;;;;;1.56;85.18;100483.90;105532;1253;69202;-60
2023/03/04 05:32:57;;;;;;;25.80;15.20;;;;;;;1.56;85.18;100487.52;105544;1252;69122;-60
2023/03/04 05:35:25;;;;;;;29.80;16.30;;;;;;;1.56;85.16;100490.27;105510;1256;72996;-60
2023/03/04 05:37:56;;;;;;;36.50;19.20;;;;;;;1.56;85.13;100488.02;105470;1254;83874;-60
2023/03/04 05:40:24;;;;;;;34.70;19.20;;;;;;;1.56;85.00;100492.68;105459;1255;73889;-60
2023/03/04 05:42:52;;;;;;;34.40;18.40;;;;;;;1.55;84.96;100490.95;105534;1254;69240;-60
2023/03/04 05:45:21;;;;;;;33.60;19.70;;;;;;;1.55;85.20;100491.30;105509;1252;69131;-60
2023/03/04 05:47:49;;;;;;;35.00;19.80;;;;;;;1.55;84.94;100498.18;105520;1257;73877;-60
2023/03/04 05:50:18;;;;;;;34.10;18.60;;;;;;;1.55;85.04;100497.84;105508;1256;83134;-60
2023/03/04 05:52:47;;;;;;;36.50;20.40;;;;;;;1.55;85.11;100499.58;105569;1253;72831;-60
2023/03/04 05:55:16;;;;;;;32.60;19.40;;;;;;;1.56;85.23;100497.84;105773;1256;69151;-60
2023/03/04 05:57:45;;;;;;;33.40;17.80;;;;;;;1.56;85.18;100497.50;105577;1253;69060;-60
2023/03/04 06:00:15;;;;;;;28.90;16.20;;;;;;;1.58;85.26;100497.52;105502;1256;74967;-60
2023/03/04 06:02:43;;;;;;;28.40;15.50;;;;;;;1.59;85.26;100491.65;105584;1256;83445;-60
2023/03/04 06:05:13;;;;;;;26.10;14.40;;;;;;;1.59;85.23;100491.48;105542;1256;72993;-60
2023/03/04 06:07:42;;;;;;;38.30;17.50;;;;;;;1.59;85.21;100484.92;105549;1256;69175;-60
2023/03/04 06:10:13;;;;;;;26.80;12.90;;;;;;;1.58;85.27;100482.01;105531;1255;69273;-60
2023/03/04 06:12:42;;;;;;;23.30;13.70;;;;;;;1.56;85.40;100483.90;105511;1256;74225;-60
2023/03/04 06:15:11;;;;;;;26.50;14.00;;;;;;;1.56;85.67;100485.27;105582;1256;82543;-60
2023/03/04 06:17:40;;;;;;;28.00;14.50;;;;;;;1.55;85.67;100482.52;105578;1254;73698;-60
2023/03/04 06:20:10;;;;;;;28.90;14.60;;;;;;;1.54;85.58;100482.16;105779;1256;69129;-60
2023/03/04 06:22:39;;;;;;;29.80;15.20;;;;;;;1.53;85.95;100479.93;105622;1254;69623;-60
2023/03/04 06:25:07;;;;;;;24.50;14.50;;;;;;;1.53;86.03;100477.86;105629;1256;73980;-60
2023/03/04 06:27:36;;;;;;;25.60;15.10;;;;;;;1.53;86.24;100477.52;105749;1254;84542;-60
2023/03/04 06:30:05;;;;;;;27.40;16.00;;;;;;;1.53;86.31;100474.08;105677;1251;73457;-59
2023/03/04 06:32:33;;;;;;;31.40;16.90;;;;;;;1.55;86.38;100470.46;105678;1256;69071;-60
2023/03/04 06:35:01;;;;;;;29.90;16.20;;;;;;;1.55;86.42;100473.55;105747;1256;69163;-60
2023/03/04 06:37:29;;;;;;;30.90;16.80;;;;;;;1.54;86.36;100469.07;105558;1256;74298;-59
2023/03/04 06:39:58;;;;;;;27.30;14.60;;;;;;;1.55;86.71;100475.62;105603;1256;83092;-63
2023/03/04 06:42:26;;;;;;;23.90;14.70;;;;;;;1.56;86.58;100477.35;105576;1256;73137;-59
2023/03/04 06:44:54;;;;;;;24.00;14.40;;;;;;;1.55;86.38;100474.08;105574;1254;69176;-59
2023/03/04 06:47:22;;;;;;;28.10;15.20;;;;;;;1.55;86.62;100478.55;105703;1252;69847;-59
2023/03/04 06:49:51;;;;;;;24.40;13.30;;;;;;;1.55;86.81;100479.41;105694;1254;74610;-59
2023/03/04 06:52:19;;;;;;;23.50;12.90;;;;;;;1.55;86.73;100476.83;105749;1256;83280;-58
2023/03/04 06:54:48;;;;;;;25.70;13.70;;;;;;;1.56;87.15;100482.69;105672;1252;73505;-59
2023/03/04 06:57:16;;;;;;;23.90;13.90;;;;;;;1.58;87.19;100482.86;105784;1256;69093;-59
2023/03/04 06:59:44;;;;;;;25.30;12.90;;;;;;;1.60;87.43;100481.14;105660;1254;69321;-59
2023/03/04 07:02:12;;;;;;;20.90;12.10;;;;;;;1.60;87.26;100479.77;105569;1256;74389;-59
2023/03/04 07:04:40;;;;;;;23.90;11.90;;;;;;;1.60;87.48;100483.54;105818;1256;83068;-60
2023/03/04 07:07:10;;;;;;;24.20;11.90;;;;;;;1.61;87.62;100482.35;105778;1254;73266;-60
2023/03/04 07:09:38;;;;;;;22.70;11.60;;;;;;;1.63;87.71;100480.96;105701;1256;69121;-60
2023/03/04 07:12:06;;;;;;;25.20;12.40;;;;;;;1.65;87.64;100481.31;105537;1256;69057;-60
2023/03/04 07:14:34;;;;;;;21.70;11.80;;;;;;;1.67;87.86;100480.80;105601;1256;75121;-60
2023/03/04 07:17:02;;;;;;;22.60;11.10;;;;;;;1.69;87.68;100486.65;105568;1254;82855;-59
2023/03/04 07:19:31;;;;;;;22.10;12.00;;;;;;;1.71;88.04;100485.80;105539;1256;73966;-59
2023/03/04 07:21:59;;;;;;;20.80;10.20;;;;;;;1.72;87.94;100482.70;105560;1254;69675;-59
2023/03/04 07:24:27;;;;;;;24.40;10.50;;;;;;;1.74;88.13;100485.63;105556;1256;69105;-60
2023/03/04 07:26:55;;;;;;;20.90;10.70;;;;;;;1.76;88.19;100477.02;105543;1256;73813;-60
2023/03/04 07:29:24;;;;;;;17.00;9.60;;;;;;;1.79;88.34;100471.15;105558;1256;83484;-60
2023/03/04 07:31:52;;;;;;;20.40;9.40;;;;;;;1.83;88.43;100478.73;105770;1256;73044;-60
2023/03/04 07:34:21;;;;;;;18.00;9.30;;;;;;;1.86;88.49;100472.70;105554;1254;69196;-59
2023/03/04 07:36:49;;;;;;;19.00;9.00;;;;;;;1.90;88.33;100471.67;105552;1254;69121;-60
2023/03/04 07:39:17;;;;;;;18.50;8.90;;;;;;;1.94;88.61;100469.42;105682;1256;75064;-59
2023/03/04 07:41:45;;;;;;;18.70;9.30;;;;;;;1.99;88.44;100467.17;105738;1254;83684;-60
2023/03/04 07:44:14;;;;;;;15.10;8.40;;;;;;;2.04;88.28;100466.32;105536;1252;73906;-60
2023/03/04 07:46:42;;;;;;;16.70;7.80;;;;;;;2.09;88.38;100462.86;105588;1261;69163;-60
2023/03/04 07:49:12;;;;;;;16.30;8.10;;;;;;;2.13;88.52;100463.71;105571;1254;69065;-59
2023/03/04 07:51:40;;;;;;;18.30;8.10;;;;;;;2.18;88.46;100466.80;105708;1256;74898;-60
2023/03/04 07:54:09;;;;;;;17.70;7.70;;;;;;;2.22;88.15;100470.61;105603;1254;83707;-59
2023/03/04 07:56:37;;;;;;;14.00;7.60;;;;;;;2.26;88.39;100468.02;105826;1256;72015;-60
2023/03/04 07:59:06;;;;;;;14.80;6.90;;;;;;;2.28;88.00;100465.41;105519;1256;69177;-59
2023/03/04 08:01:36;;;;;;;19.80;8.40;;;;;;;2.29;88.24;100469.21;105547;1254;69016;-60
2023/03/04 08:04:05;;;;;;;19.10;8.90;;;;;;;2.32;87.96;100465.92;105714;1256;74886;-60
2023/03/04 08:06:34;;;;;;;20.60;9.80;;;;;;;2.34;88.05;100468.49;105718;1256;83875;-60
2023/03/04 08:09:05;;;;;;;18.30;7.70;;;;;;;2.36;87.98;100464.36;105720;1256;72748;-60
2023/03/04 08:11:35;;;;;;;17.30;7.90;;;;;;;2.38;88.16;100459.52;105572;1256;69166;-60
2023/03/04 08:14:03;;;;;;;14.30;7.30;;;;;;;2.41;88.19;100455.03;105685;1254;69159;-60
2023/03/04 08:16:32;;;;;;;15.90;8.50;;;;;;;2.44;87.89;100459.68;105714;1254;74920;-59
2023/03/04 08:19:01;;;;;;;13.70;7.60;;;;;;;2.46;88.11;100457.95;105702;1257;81944;-59
2023/03/04 08:21:29;;;;;;;16.00;7.20;;;;;;;2.48;88.19;100460.88;105675;1256;73170;-60
2023/03/04 08:24:01;;;;;;;17.40;7.50;;;;;;;2.51;88.16;100462.77;105655;1252;69017;-60
2023/03/04 08:26:37;;;;;;;16.90;7.80;;;;;;;2.53;88.16;100463.11;105735;1254;69087;-60
2023/03/04 08:29:10;;;;;;;14.70;7.40;;;;;;;2.55;88.05;100457.75;105535;1256;76041;-59
2023/03/04 08:31:39;;;;;;;16.10;7.80;;;;;;;2.60;88.30;100454.28;105662;1256;82537;-60
2023/03/04 08:34:09;;;;;;;15.70;8.20;;;;;;;2.63;88.08;100457.72;105978;1256;73531;-59
2023/03/04 08:36:37;;;;;;;12.40;7.20;;;;;;;2.66;88.04;100459.79;105598;1256;69107;-60
2023/03/04 08:39:06;;;;;;;16.30;7.70;;;;;;;2.70;88.23;100453.39;105783;1256;69116;-59
2023/03/04 08:41:34;;;;;;;12.30;6.80;;;;;;;2.75;88.24;100456.13;105565;1256;73982;-59
2023/03/04 08:44:03;;;;;;;17.30;7.90;;;;;;;2.79;88.01;100455.08;105631;1254;100334;-58
2023/03/04 08:46:31;;;;;;;12.30;6.70;;;;;;;2.80;87.97;100454.20;105543;1255;72807;-58
2023/03/04 08:48:59;;;;;;;11.40;7.00;;;;;;;2.82;87.80;100451.08;105585;1252;69182;-59
2023/03/04 08:51:27;;;;;;;18.10;8.70;;;;;;;2.83;88.05;100454.53;105532;1256;69171;-59
2023/03/04 08:53:56;;;;;;;15.50;8.10;;;;;;;2.84;88.13;100447.45;105477;1254;74869;-59
2023/03/04 08:56:24;;;;;;;18.00;8.40;;;;;;;2.83;87.90;100446.42;105580;1252;83510;-59
2023/03/04 08:58:52;;;;;;;17.10;7.50;;;;;;;2.84;88.11;100453.33;105449;1254;73960;-59
2023/03/04 09:01:21;;;;;;;17.60;7.80;;;;;;;2.83;88.43;100450.39;105487;1252;69079;-59
2023/03/04 09:03:49;;;;;;;17.10;8.30;;;;;;;2.85;88.52;100444.17;105539;1257;69190;-59
2023/03/04 09:06:18;;;;;;;16.50;8.20;;;;;;;2.91;88.57;100451.56;105667;1253;73582;-59
2023/03/04 09:08:46;;;;;;;17.50;7.90;;;;;;;2.94;88.54;100444.31;105566;1254;83082;-59
2023/03/04 09:11:15;;;;;;;12.70;7.30;;;;;;;2.97;88.56;100449.48;105546;1254;73641;-59
2023/03/04 09:13:43;;;;;;;18.20;8.20;;;;;;;2.99;88.46;100443.41;105525;1256;69195;-59
2023/03/04 09:16:13;;;;;;;14.90;8.20;;;;;;;3.03;88.63;100440.45;105464;1252;69080;-59
2023/03/04 09:18:42;;;;;;;15.90;7.80;;;;;;;3.03;88.75;100442.52;105567;1254;73899;-60
2023/03/04 09:21:10;;;;;;;13.00;7.30;;;;;;;3.06;88.69;100437.15;105588;1254;83463;-60
2023/03/04 09:23:39;;;;;;;13.40;7.90;;;;;;;3.14;89.09;100440.21;105547;1256;73645;-59
2023/03/04 09:26:25;;;;;;;13.90;7.20;;;;;;;3.22;89.34;100431.53;105587;1256;69183;-59
2023/03/04 09:28:56;;;;;;;13.50;7.30;;;;;;;3.34;89.34;100435.77;105561;1257;69088;-59
2023/03/04 09:31:25;;;;;;;14.60;6.90;;;;;;;3.49;89.59;100437.74;105551;1256;75178;-60
2023/03/04 09:33:56;;;;;;;18.90;7.20;;;;;;;3.61;89.47;100433.86;105543;1254;82845;-59
2023/03/04 09:36:24;;;;;;;12.70;6.80;;;;;;;3.76;89.56;100428.52;105530;1257;73900;-59
2023/03/04 09:38:52;;;;;;;12.80;6.60;;;;;;;3.92;89.52;100424.05;105650;1254;69198;-59
2023/03/04 09:41:24;;;;;;;12.50;6.70;;;;;;;4.07;89.63;100425.13;105494;1254;69109;-59
2023/03/04 09:43:53;;;;;;;12.60;6.20;;;;;;;4.24;89.65;100418.20;105579;1256;73065;-59
2023/03/04 09:46:28;;;;;;;12.00;5.80;;;;;;;4.44;89.68;100419.36;105517;1254;83852;-59
2023/03/04 09:48:57;;;;;;;10.10;5.40;;;;;;;4.61;89.23;100416.58;105399;1252;73926;-59
2023/03/04 09:51:34;;;;;;;11.00;5.70;;;;;;;4.63;88.80;100410.84;105519;1256;69082;-59
2023/03/04 09:54:09;;;;;;;11.30;6.10;;;;;;;4.67;88.46;100410.27;105557;1256;69122;-59
2023/03/04 09:56:39;;;;;;;8.10;5.40;;;;;;;4.77;88.34;100408.95;105569;1257;73922;-59
2023/03/04 09:59:10;;;;;;;10.90;5.80;;;;;;;4.80;88.06;100405.77;105536;1254;82503;-58
2023/03/04 10:01:45;;;;;;;10.10;5.00;;;;;;;4.83;87.70;100399.50;105477;1254;72728;-58
2023/03/04 10:04:39;;;;;;;7.00;4.50;;;;;;;4.89;87.65;100406.34;105460;1254;69176;-59
2023/03/04 10:07:16;;;;;;;8.30;5.10;;;;;;;4.95;87.29;100401.76;105515;1253;69160;-58
2023/03/04 10:10:09;;;;;;;7.90;4.60;;;;;;;4.93;86.83;100404.03;105387;1258;74162;-58
2023/03/04 10:12:40;;;;;;;8.80;5.30;;;;;;;4.89;86.62;100402.20;105416;1254;81717;-58
2023/03/04 10:15:38;;;;;;;7.50;4.70;;;;;;;4.84;86.77;100394.98;105738;1254;72808;-58
2023/03/04 10:18:16;;;;;;;14.00;6.10;;;;;;;4.90;86.66;100396.80;105490;1252;69141;-58
2023/03/04 10:21:00;;;;;;;9.00;5.30;;;;;;;4.90;86.34;100394.38;105773;1254;69135;-58
2023/03/04 10:23:30;;;;;;;7.50;4.70;;;;;;;4.90;86.22;100394.38;105584;1256;73956;-58
2023/03/04 10:25:59;;;;;;;;;;;;;;;4.94;86.13;100392.09;105553;1254;81957;-58
2023/03/04 10:28:29;;;;;;;8.20;4.90;;;;;;;4.95;86.01;100387.91;105435;1254;72767;-58
2023/03/04 10:31:21;;;;;;;8.60;5.00;;;;;;;4.98;86.07;100390.98;105521;1257;69886;-58
2023/03/04 10:33:50;;;;;;;7.60;4.40;;;;;;;5.01;85.89;100393.52;105787;1254;69167;-59
2023/03/04 10:36:30;;;;;;;9.40;4.70;;;;;;;4.99;85.84;100384.39;105549;1256;74592;-59
2023/03/04 10:39:08;;;;;;;7.30;4.40;;;;;;;4.97;85.53;100387.36;105542;1254;82547;-59
2023/03/04 10:41:42;;;;;;;6.90;4.90;;;;;;;4.94;85.67;100383.59;105717;1256;73894;-59
2023/03/04 10:44:16;;;;;;;7.80;4.90;;;;;;;5.00;85.74;100376.92;105511;1257;69206;-59
2023/03/04 10:46:46;;;;;;;7.80;4.70;;;;;;;5.08;85.59;100379.05;105529;1256;69179;-59
2023/03/04 10:49:17;;;;;;;9.80;4.70;;;;;;;5.08;85.27;100381.30;105681;1256;73955;-59
2023/03/04 10:51:46;;;;;;;7.30;4.70;;;;;;;5.08;85.28;100378.70;105569;1252;83308;-59
2023/03/04 10:54:23;;;;;;;9.90;5.30;;;;;;;5.13;85.55;100379.15;105587;1256;73969;-59
2023/03/04 10:57:11;;;;;;;10.10;5.00;;;;;;;5.09;85.13;100379.02;105854;1256;69156;-59
2023/03/04 10:59:49;;;;;;;8.20;5.00;;;;;;;5.10;85.20;100370.54;105652;1256;69112;-59
2023/03/04 11:02:23;;;;;;;8.40;5.00;;;;;;;5.08;85.05;100369.19;105826;1256;73931;-59
2023/03/04 11:05:00;;;;;;;8.40;4.80;;;;;;;5.08;85.11;100369.18;105770;1256;83347;-59
2023/03/04 11:07:28;;;;;;;8.30;4.90;;;;;;;5.12;85.36;100373.27;105523;1257;73802;-59
2023/03/04 11:10:17;;;;;;;10.30;6.30;;;;;;;5.08;85.07;100367.96;105493;1256;69211;-58
2023/03/04 11:12:59;;;;;;;10.20;5.40;;;;;;;5.15;85.35;100368.22;105573;1257;69089;-59
2023/03/04 11:15:30;;;;;;;7.30;4.30;;;;;;;5.19;84.81;100366.24;105735;1257;74928;-59
2023/03/04 11:18:02;;;;;;;9.10;4.80;;;;;;;5.21;84.71;100365.36;105568;1254;83688;-59
2023/03/04 11:20:38;;;;;;;8.00;4.60;;;;;;;5.24;84.70;100367.39;105482;1256;72704;-59
2023/03/04 11:23:15;;;;;;;7.30;4.50;;;;;;;5.15;84.60;100368.91;105676;1257;69176;-60
2023/03/04 11:25:48;;;;;;;8.30;4.60;;;;;;;4.95;84.56;100362.11;105632;1252;69169;-61
2023/03/04 11:28:21;;;;;;;8.30;5.20;;;;;;;4.79;85.05;100361.64;105453;1258;74865;-61